»·PEaware :: N445SP L88-KSBP

N445SP :: L88-KSBP

FLIGHT INFORMATION

Flight Status: Arrived
Operator: Privately registered:
United States
More flights under this callsign
Pilot: Sven H. (18957)
Aircraft: CESSNA 172 SKYHAWK
(C172)
More flights by this aircraft type
Origin: L88 New Cuyama
United States
Destination: KSBP San Luis Co Regl
United States
More flights between these airports :: More routes between these airports
Route:
File this flight plan on PilotEdge
Remarks: CAT 2 - Newbie
Altitude:
(Current/Filed)
5,000ft
Speed:
(Current/Filed)
120kts
Departed: 13-May-18 01:55 PM
Arrived: 13-May-18 02:26 PM
Distance/Time
Traveled:
0nm/0:30
Distance/Time
To Go:
Arrived

Flight Plot

Page will automatically refresh every two minutes.


Map Options




Map Legend


Flown Route
Filed Route
Departure Airport
Arrival Airport
Navaid (VOR, NDB)
Fix

Horizontal Profiles

Position Reports

Time Latitude Longitude Heading Altitude Ground
Speed
13-May-18 13:35 34.942855 -119.690286 204 2154ft 0kts
13-May-18 13:36 34.942855 -119.690286 204 2154ft 0kts
13-May-18 13:37 34.942855 -119.690286 204 2154ft 0kts
13-May-18 13:38 34.942855 -119.690286 204 2154ft 0kts
13-May-18 13:39 34.942855 -119.690286 204 2154ft 0kts
13-May-18 13:40 34.942855 -119.690286 204 2154ft 0kts
13-May-18 13:41 34.942855 -119.690286 204 2154ft 0kts
13-May-18 13:42 34.942823 -119.690297 190 2154ft 0kts
13-May-18 13:43 34.942823 -119.690297 190 2154ft 0kts
13-May-18 13:44 34.942823 -119.690297 190 2154ft 0kts
13-May-18 13:45 34.942823 -119.690297 190 2154ft 0kts
13-May-18 13:46 34.942823 -119.690297 190 2154ft 0kts
13-May-18 13:47 34.942823 -119.690297 190 2154ft 0kts
13-May-18 13:48 34.942823 -119.690297 190 2154ft 0kts
13-May-18 13:49 34.942823 -119.690297 190 2154ft 0kts
13-May-18 13:50 34.942616 -119.690519 261 2154ft 7kts
13-May-18 13:51 34.940140 -119.686064 118 2175ft 26kts
13-May-18 13:52 34.937543 -119.679557 93 2209ft 0kts
13-May-18 13:53 34.937541 -119.679488 90 2209ft 0kts
13-May-18 13:54 34.938226 -119.681551 304 2200ft 38kts
13-May-18 13:55 34.950437 -119.704427 255 2565ft 97kts
13-May-18 13:56 34.963330 -119.729780 292 3545ft 82kts
13-May-18 13:57 34.977768 -119.753768 289 4014ft 111kts
13-May-18 13:58 34.991908 -119.788366 288 4006ft 106kts
13-May-18 13:59 35.004975 -119.819072 288 4007ft 99kts
13-May-18 14:00 35.014954 -119.847964 287 4042ft 89kts
13-May-18 14:01 35.022452 -119.875475 288 4060ft 84kts
13-May-18 14:02 35.029728 -119.899827 288 4059ft 84kts
13-May-18 14:03 35.039150 -119.931080 292 3957ft 103kts
13-May-18 14:04 35.050360 -119.963623 295 3967ft 104kts
13-May-18 14:05 35.063375 -119.995546 296 3968ft 105kts
13-May-18 14:06 35.076391 -120.027480 296 3968ft 105kts
13-May-18 14:07 35.089476 -120.059465 296 3968ft 105kts
13-May-18 14:08 35.100466 -120.092141 282 3968ft 105kts
13-May-18 14:09 35.105990 -120.122486 282 3959ft 106kts
13-May-18 14:10 35.112713 -120.159532 282 3565ft 122kts
13-May-18 14:11 35.119943 -120.198770 283 3063ft 115kts
13-May-18 14:12 35.126124 -120.232070 282 3010ft 87kts
13-May-18 14:13 35.131121 -120.259491 282 3011ft 80kts
13-May-18 14:14 35.135842 -120.285748 282 3011ft 78kts
13-May-18 14:15 35.140928 -120.313977 282 3012ft 96kts
13-May-18 14:16 35.147103 -120.347211 282 3011ft 102kts
13-May-18 14:17 35.153423 -120.381495 282 3011ft 104kts
13-May-18 14:18 35.159796 -120.416389 282 2942ft 110kts
13-May-18 14:19 35.166885 -120.455314 283 2644ft 118kts
13-May-18 14:20 35.174233 -120.494518 283 2344ft 118kts
13-May-18 14:21 35.181444 -120.532901 285 1789ft 114kts
13-May-18 14:22 35.194779 -120.567827 303 1189ft 115kts
13-May-18 14:23 35.210824 -120.596797 305 842ft 92kts
13-May-18 14:24 35.223036 -120.616613 307 606ft 68kts
13-May-18 14:25 35.234359 -120.635650 305 220ft 70kts
13-May-18 14:26 35.239849 -120.644000 40 180ft 0kts
13-May-18 14:27 35.239276 -120.642427 131 186ft 16kts
13-May-18 14:28 35.238243 -120.638318 337 200ft 14kts
13-May-18 14:29 35.238461 -120.638506 273 198ft 0kts
13-May-18 14:30 35.238461 -120.638506 273 198ft 0kts
13-May-18 14:31 35.238461 -120.638506 273 198ft 0kts
13-May-18 14:32 35.238461 -120.638506 273 198ft 0kts
13-May-18 14:33 35.238461 -120.638506 273 198ft 0kts
13-May-18 14:34 35.238461 -120.638506 273 198ft 0kts
13-May-18 14:35 35.238461 -120.638506 273 198ft 0kts
13-May-18 14:36 35.238461 -120.638506 273 198ft 0kts
13-May-18 14:39 34.942853 -119.690286 204 2154ft 0kts
13-May-18 14:40 34.942853 -119.690286 204 2154ft 0kts

Navigation Log

Ident Type
1. L88 Airport
2. KSBP Airport